sensor_id;sensor_type;location;lat;lon;timestamp;temperature;humidity
1704;DHT22;849;48.780;9.216;2023-03-21T00:00:23;13.30;99.90
1704;DHT22;849;48.780;9.216;2023-03-21T00:02:49;13.40;99.90
1704;DHT22;849;48.780;9.216;2023-03-21T00:05:15;13.40;99.90
1704;DHT22;849;48.780;9.216;2023-03-21T00:07:41;13.50;99.90
1704;DHT22;849;48.780;9.216;2023-03-21T00:10:08;13.50;99.90
1704;DHT22;849;48.780;9.216;2023-03-21T00:12:34;13.50;99.90
1704;DHT22;849;48.780;9.216;2023-03-21T00:15:04;13.50;99.90
1704;DHT22;849;48.780;9.216;2023-03-21T00:17:31;13.50;99.90
1704;DHT22;849;48.780;9.216;2023-03-21T00:19:58;13.50;99.90
1704;DHT22;849;48.780;9.216;2023-03-21T00:22:25;13.60;99.90
1704;DHT22;849;48.780;9.216;2023-03-21T00:24:52;13.50;99.90
1704;DHT22;849;48.780;9.216;2023-03-21T00:27:17;13.50;99.90
1704;DHT22;849;48.780;9.216;2023-03-21T00:29:47;13.50;99.90
1704;DHT22;849;48.780;9.216;2023-03-21T00:32:16;13.50;99.90
1704;DHT22;849;48.780;9.216;2023-03-21T00:34:42;13.60;99.90
1704;DHT22;849;48.780;9.216;2023-03-21T00:37:09;13.70;99.90
1704;DHT22;849;48.780;9.216;2023-03-21T00:39:36;13.60;99.90
1704;DHT22;849;48.780;9.216;2023-03-21T00:42:02;13.50;99.90
1704;DHT22;849;48.780;9.216;2023-03-21T00:44:28;13.50;99.90
1704;DHT22;849;48.780;9.216;2023-03-21T00:47:04;13.50;99.90
1704;DHT22;849;48.780;9.216;2023-03-21T00:49:30;13.40;99.90
1704;DHT22;849;48.780;9.216;2023-03-21T00:52:00;13.50;99.90
1704;DHT22;849;48.780;9.216;2023-03-21T00:54:26;13.50;99.90
1704;DHT22;849;48.780;9.216;2023-03-21T00:56:52;13.50;99.90
1704;DHT22;849;48.780;9.216;2023-03-21T00:59:18;13.50;99.90
1704;DHT22;849;48.780;9.216;2023-03-21T01:01:44;13.50;99.90
1704;DHT22;849;48.780;9.216;2023-03-21T01:04:12;13.50;99.90
1704;DHT22;849;48.780;9.216;2023-03-21T01:06:41;13.50;99.90
1704;DHT22;849;48.780;9.216;2023-03-21T01:09:17;13.40;99.90
1704;DHT22;849;48.780;9.216;2023-03-21T01:11:43;13.50;99.90
1704;DHT22;849;48.780;9.216;2023-03-21T01:14:10;13.50;99.90
1704;DHT22;849;48.780;9.216;2023-03-21T01:16:37;13.50;99.90
1704;DHT22;849;48.780;9.216;2023-03-21T01:19:04;13.50;99.90
1704;DHT22;849;48.780;9.216;2023-03-21T01:21:31;13.40;99.90
1704;DHT22;849;48.780;9.216;2023-03-21T01:23:56;13.50;99.90
1704;DHT22;849;48.780;9.216;2023-03-21T01:26:22;13.40;99.90
1704;DHT22;849;48.780;9.216;2023-03-21T01:28:48;13.40;99.90
1704;DHT22;849;48.780;9.216;2023-03-21T01:31:15;13.40;99.90
1704;DHT22;849;48.780;9.216;2023-03-21T01:33:42;13.40;99.90
1704;DHT22;849;48.780;9.216;2023-03-21T01:36:14;13.40;99.90
1704;DHT22;849;48.780;9.216;2023-03-21T01:38:41;13.40;99.90
1704;DHT22;849;48.780;9.216;2023-03-21T01:41:08;13.40;99.90
1704;DHT22;849;48.780;9.216;2023-03-21T01:43:35;13.30;99.90
1704;DHT22;849;48.780;9.216;2023-03-21T01:49:11;13.40;99.90
1704;DHT22;849;48.780;9.216;2023-03-21T01:51:43;13.50;99.90
1704;DHT22;849;48.780;9.216;2023-03-21T01:54:14;13.50;99.90
1704;DHT22;849;48.780;9.216;2023-03-21T01:56:42;13.40;99.90
1704;DHT22;849;48.780;9.216;2023-03-21T01:59:15;13.40;99.90
1704;DHT22;849;48.780;9.216;2023-03-21T02:01:42;13.40;99.90
1704;DHT22;849;48.780;9.216;2023-03-21T02:04:10;13.40;99.90
1704;DHT22;849;48.780;9.216;2023-03-21T02:07:01;13.40;99.90
1704;DHT22;849;48.780;9.216;2023-03-21T02:09:32;13.30;99.90
1704;DHT22;849;48.780;9.216;2023-03-21T02:11:59;13.30;99.90
1704;DHT22;849;48.780;9.216;2023-03-21T02:14:24;13.30;99.90
1704;DHT22;849;48.780;9.216;2023-03-21T02:25:06;13.20;99.90
1704;DHT22;849;48.780;9.216;2023-03-21T02:27:49;13.20;99.90
1704;DHT22;849;48.780;9.216;2023-03-21T02:30:41;13.20;99.90
1704;DHT22;849;48.780;9.216;2023-03-21T02:39:47;13.20;99.90
1704;DHT22;849;48.780;9.216;2023-03-21T02:42:40;13.20;99.90
1704;DHT22;849;48.780;9.216;2023-03-21T02:45:22;13.20;99.90
1704;DHT22;849;48.780;9.216;2023-03-21T02:47:53;13.10;99.90
1704;DHT22;849;48.780;9.216;2023-03-21T02:52:59;13.00;99.90
1704;DHT22;849;48.780;9.216;2023-03-21T02:55:28;13.00;99.90
1704;DHT22;849;48.780;9.216;2023-03-21T02:57:56;13.10;99.90
1704;DHT22;849;48.780;9.216;2023-03-21T03:00:26;13.00;99.90
1704;DHT22;849;48.780;9.216;2023-03-21T03:02:52;13.10;99.90
1704;DHT22;849;48.780;9.216;2023-03-21T03:05:25;13.10;99.90
1704;DHT22;849;48.780;9.216;2023-03-21T03:10:43;13.10;99.90
1704;DHT22;849;48.780;9.216;2023-03-21T03:13:19;13.10;99.90
1704;DHT22;849;48.780;9.216;2023-03-21T03:18:56;13.10;99.90
1704;DHT22;849;48.780;9.216;2023-03-21T03:21:30;13.00;99.90
1704;DHT22;849;48.780;9.216;2023-03-21T03:24:16;13.00;99.90
1704;DHT22;849;48.780;9.216;2023-03-21T03:29:17;12.90;99.90
1704;DHT22;849;48.780;9.216;2023-03-21T03:31:50;12.90;99.90
1704;DHT22;849;48.780;9.216;2023-03-21T03:34:23;13.00;99.90
1704;DHT22;849;48.780;9.216;2023-03-21T03:36:55;13.00;99.90
1704;DHT22;849;48.780;9.216;2023-03-21T03:39:32;12.90;99.90
1704;DHT22;849;48.780;9.216;2023-03-21T03:42:02;12.90;99.90
1704;DHT22;849;48.780;9.216;2023-03-21T03:44:30;12.90;99.90
1704;DHT22;849;48.780;9.216;2023-03-21T03:47:08;12.90;99.90
1704;DHT22;849;48.780;9.216;2023-03-21T03:50:00;12.90;99.90
1704;DHT22;849;48.780;9.216;2023-03-21T03:52:34;12.90;99.90
1704;DHT22;849;48.780;9.216;2023-03-21T03:55:02;12.90;99.90
1704;DHT22;849;48.780;9.216;2023-03-21T03:57:28;12.80;99.90
1704;DHT22;849;48.780;9.216;2023-03-21T03:59:54;12.80;99.90
1704;DHT22;849;48.780;9.216;2023-03-21T04:02:20;12.80;99.90
1704;DHT22;849;48.780;9.216;2023-03-21T04:04:46;12.90;99.90
1704;DHT22;849;48.780;9.216;2023-03-21T04:07:13;12.80;99.90
1704;DHT22;849;48.780;9.216;2023-03-21T04:09:38;12.80;99.90
1704;DHT22;849;48.780;9.216;2023-03-21T04:12:07;12.80;99.90
1704;DHT22;849;48.780;9.216;2023-03-21T04:14:39;12.70;99.90
1704;DHT22;849;48.780;9.216;2023-03-21T04:17:05;12.70;99.90
1704;DHT22;849;48.780;9.216;2023-03-21T04:19:30;12.60;99.90
1704;DHT22;849;48.780;9.216;2023-03-21T04:21:57;12.50;99.90
1704;DHT22;849;48.780;9.216;2023-03-21T04:24:22;12.60;99.90
1704;DHT22;849;48.780;9.216;2023-03-21T04:26:48;12.60;99.90
1704;DHT22;849;48.780;9.216;2023-03-21T04:29:19;12.60;99.90
1704;DHT22;849;48.780;9.216;2023-03-21T04:31:46;12.60;99.90
1704;DHT22;849;48.780;9.216;2023-03-21T04:34:14;12.60;99.90
1704;DHT22;849;48.780;9.216;2023-03-21T04:36:40;12.60;99.90
1704;DHT22;849;48.780;9.216;2023-03-21T04:39:12;12.70;99.90
1704;DHT22;849;48.780;9.216;2023-03-21T04:41:39;12.70;99.90
1704;DHT22;849;48.780;9.216;2023-03-21T04:44:06;12.70;99.90
1704;DHT22;849;48.780;9.216;2023-03-21T04:46:32;12.60;99.90
1704;DHT22;849;48.780;9.216;2023-03-21T04:48:58;12.50;99.90
1704;DHT22;849;48.780;9.216;2023-03-21T04:51:24;12.40;99.90
1704;DHT22;849;48.780;9.216;2023-03-21T04:53:50;12.30;99.90
1704;DHT22;849;48.780;9.216;2023-03-21T04:56:17;12.30;99.90
1704;DHT22;849;48.780;9.216;2023-03-21T04:58:44;12.30;99.90
1704;DHT22;849;48.780;9.216;2023-03-21T05:01:09;12.30;99.90
1704;DHT22;849;48.780;9.216;2023-03-21T05:03:39;12.20;99.90
1704;DHT22;849;48.780;9.216;2023-03-21T05:06:08;12.20;99.90
1704;DHT22;849;48.780;9.216;2023-03-21T05:08:34;12.20;99.90
1704;DHT22;849;48.780;9.216;2023-03-21T05:11:01;12.20;99.90
1704;DHT22;849;48.780;9.216;2023-03-21T05:13:27;12.20;99.90
1704;DHT22;849;48.780;9.216;2023-03-21T05:15:52;12.20;99.90
1704;DHT22;849;48.780;9.216;2023-03-21T05:18:18;12.20;99.90
1704;DHT22;849;48.780;9.216;2023-03-21T05:20:51;12.30;99.90
1704;DHT22;849;48.780;9.216;2023-03-21T05:23:21;12.20;99.90
1704;DHT22;849;48.780;9.216;2023-03-21T05:25:47;12.10;99.90
1704;DHT22;849;48.780;9.216;2023-03-21T05:28:13;12.10;99.90
1704;DHT22;849;48.780;9.216;2023-03-21T05:30:43;12.10;99.90
1704;DHT22;849;48.780;9.216;2023-03-21T05:33:10;12.20;99.90
1704;DHT22;849;48.780;9.216;2023-03-21T05:35:35;12.20;99.90
1704;DHT22;849;48.780;9.216;2023-03-21T05:38:01;12.20;99.90
1704;DHT22;849;48.780;9.216;2023-03-21T05:40:27;12.20;99.90
1704;DHT22;849;48.780;9.216;2023-03-21T05:42:53;12.20;99.90
1704;DHT22;849;48.780;9.216;2023-03-21T05:45:19;12.20;99.90
1704;DHT22;849;48.780;9.216;2023-03-21T05:47:45;12.20;99.90
1704;DHT22;849;48.780;9.216;2023-03-21T05:50:11;12.20;99.90
1704;DHT22;849;48.780;9.216;2023-03-21T05:52:38;12.20;99.90
1704;DHT22;849;48.780;9.216;2023-03-21T05:55:04;12.30;99.90
1704;DHT22;849;48.780;9.216;2023-03-21T05:57:30;12.20;99.90
1704;DHT22;849;48.780;9.216;2023-03-21T06:00:00;12.20;99.90
1704;DHT22;849;48.780;9.216;2023-03-21T06:02:26;12.30;99.90
1704;DHT22;849;48.780;9.216;2023-03-21T06:04:52;12.40;99.90
1704;DHT22;849;48.780;9.216;2023-03-21T06:07:18;12.30;99.90
1704;DHT22;849;48.780;9.216;2023-03-21T06:09:43;12.40;99.90
1704;DHT22;849;48.780;9.216;2023-03-21T06:12:10;12.40;99.90
1704;DHT22;849;48.780;9.216;2023-03-21T06:14:36;12.50;99.90
1704;DHT22;849;48.780;9.216;2023-03-21T06:17:02;12.50;99.90
1704;DHT22;849;48.780;9.216;2023-03-21T06:19:28;12.50;99.90
1704;DHT22;849;48.780;9.216;2023-03-21T06:21:53;12.50;99.90
1704;DHT22;849;48.780;9.216;2023-03-21T06:24:20;12.50;99.90
1704;DHT22;849;48.780;9.216;2023-03-21T06:26:45;12.60;99.90
1704;DHT22;849;48.780;9.216;2023-03-21T06:29:12;12.30;99.90
1704;DHT22;849;48.780;9.216;2023-03-21T06:31:38;12.30;99.90
1704;DHT22;849;48.780;9.216;2023-03-21T06:34:04;12.40;99.90
1704;DHT22;849;48.780;9.216;2023-03-21T06:36:30;12.50;99.90
1704;DHT22;849;48.780;9.216;2023-03-21T06:38:55;12.50;99.90
1704;DHT22;849;48.780;9.216;2023-03-21T06:41:21;12.60;99.90
1704;DHT22;849;48.780;9.216;2023-03-21T06:43:46;12.60;99.90
1704;DHT22;849;48.780;9.216;2023-03-21T06:46:12;12.70;99.90
1704;DHT22;849;48.780;9.216;2023-03-21T06:48:38;12.70;99.90
1704;DHT22;849;48.780;9.216;2023-03-21T06:51:10;12.70;99.90
1704;DHT22;849;48.780;9.216;2023-03-21T06:53:35;12.80;99.90
1704;DHT22;849;48.780;9.216;2023-03-21T06:56:01;12.80;99.90
1704;DHT22;849;48.780;9.216;2023-03-21T06:58:27;12.70;99.90
1704;DHT22;849;48.780;9.216;2023-03-21T07:00:52;12.80;99.90
1704;DHT22;849;48.780;9.216;2023-03-21T07:03:18;12.70;99.90
1704;DHT22;849;48.780;9.216;2023-03-21T07:05:44;12.70;99.90
1704;DHT22;849;48.780;9.216;2023-03-21T07:08:09;12.80;99.90
1704;DHT22;849;48.780;9.216;2023-03-21T07:10:41;12.90;99.90
1704;DHT22;849;48.780;9.216;2023-03-21T07:13:07;12.90;99.90
1704;DHT22;849;48.780;9.216;2023-03-21T07:15:33;13.00;99.90
1704;DHT22;849;48.780;9.216;2023-03-21T07:18:03;12.90;99.90
1704;DHT22;849;48.780;9.216;2023-03-21T07:20:28;13.00;99.90
1704;DHT22;849;48.780;9.216;2023-03-21T07:22:55;13.00;99.90
1704;DHT22;849;48.780;9.216;2023-03-21T07:25:21;12.80;99.90
1704;DHT22;849;48.780;9.216;2023-03-21T07:27:47;12.60;99.90
1704;DHT22;849;48.780;9.216;2023-03-21T07:30:13;12.60;99.90
1704;DHT22;849;48.780;9.216;2023-03-21T07:32:38;12.30;99.90
1704;DHT22;849;48.780;9.216;2023-03-21T07:35:10;12.40;99.90
1704;DHT22;849;48.780;9.216;2023-03-21T07:37:37;12.40;99.90
1704;DHT22;849;48.780;9.216;2023-03-21T07:40:03;12.50;99.90
1704;DHT22;849;48.780;9.216;2023-03-21T07:42:36;12.50;99.90
1704;DHT22;849;48.780;9.216;2023-03-21T07:45:03;12.50;99.90
1704;DHT22;849;48.780;9.216;2023-03-21T07:47:30;12.40;99.90
1704;DHT22;849;48.780;9.216;2023-03-21T07:49:56;12.40;99.90
1704;DHT22;849;48.780;9.216;2023-03-21T07:52:22;12.40;99.90
1704;DHT22;849;48.780;9.216;2023-03-21T07:54:47;12.50;99.90
1704;DHT22;849;48.780;9.216;2023-03-21T07:57:13;12.60;99.90
1704;DHT22;849;48.780;9.216;2023-03-21T07:59:39;12.80;99.90
1704;DHT22;849;48.780;9.216;2023-03-21T08:02:04;13.00;99.90
1704;DHT22;849;48.780;9.216;2023-03-21T08:04:31;13.10;99.90
1704;DHT22;849;48.780;9.216;2023-03-21T08:06:57;13.30;99.90
1704;DHT22;849;48.780;9.216;2023-03-21T08:09:22;13.20;99.90
1704;DHT22;849;48.780;9.216;2023-03-21T08:11:48;13.10;99.90
1704;DHT22;849;48.780;9.216;2023-03-21T08:14:14;13.00;99.90
1704;DHT22;849;48.780;9.216;2023-03-21T08:16:39;13.10;99.90
1704;DHT22;849;48.780;9.216;2023-03-21T08:19:05;13.20;99.90
1704;DHT22;849;48.780;9.216;2023-03-21T08:21:30;13.20;99.90
1704;DHT22;849;48.780;9.216;2023-03-21T08:23:56;13.30;99.90
1704;DHT22;849;48.780;9.216;2023-03-21T08:26:22;13.40;99.90
1704;DHT22;849;48.780;9.216;2023-03-21T08:28:50;13.40;99.90
1704;DHT22;849;48.780;9.216;2023-03-21T08:31:16;13.30;99.90
1704;DHT22;849;48.780;9.216;2023-03-21T08:33:42;13.20;99.90
1704;DHT22;849;48.780;9.216;2023-03-21T08:36:08;13.30;99.90
1704;DHT22;849;48.780;9.216;2023-03-21T08:38:34;13.40;99.90
1704;DHT22;849;48.780;9.216;2023-03-21T08:41:00;13.60;99.90
1704;DHT22;849;48.780;9.216;2023-03-21T08:43:27;13.70;99.90
1704;DHT22;849;48.780;9.216;2023-03-21T08:45:54;13.70;99.90
1704;DHT22;849;48.780;9.216;2023-03-21T08:48:20;13.70;99.90
1704;DHT22;849;48.780;9.216;2023-03-21T08:50:46;13.80;99.90
1704;DHT22;849;48.780;9.216;2023-03-21T08:53:12;13.60;99.90
1704;DHT22;849;48.780;9.216;2023-03-21T08:55:37;13.70;99.90
1704;DHT22;849;48.780;9.216;2023-03-21T08:58:03;13.80;99.90
1704;DHT22;849;48.780;9.216;2023-03-21T09:00:29;13.90;99.90
1704;DHT22;849;48.780;9.216;2023-03-21T09:02:55;13.90;99.90
1704;DHT22;849;48.780;9.216;2023-03-21T09:05:23;14.00;99.90
1704;DHT22;849;48.780;9.216;2023-03-21T09:07:50;14.10;99.90
1704;DHT22;849;48.780;9.216;2023-03-21T09:10:20;14.20;99.90
1704;DHT22;849;48.780;9.216;2023-03-21T09:12:47;14.20;99.90
1704;DHT22;849;48.780;9.216;2023-03-21T09:15:13;14.20;99.90
1704;DHT22;849;48.780;9.216;2023-03-21T09:17:39;14.30;99.90
1704;DHT22;849;48.780;9.216;2023-03-21T09:20:09;14.40;99.90
1704;DHT22;849;48.780;9.216;2023-03-21T09:22:39;14.30;99.90
1704;DHT22;849;48.780;9.216;2023-03-21T09:25:05;14.20;99.90
1704;DHT22;849;48.780;9.216;2023-03-21T09:27:33;14.30;99.90
1704;DHT22;849;48.780;9.216;2023-03-21T09:29:59;14.40;99.90
1704;DHT22;849;48.780;9.216;2023-03-21T09:32:25;14.50;99.90
1704;DHT22;849;48.780;9.216;2023-03-21T09:34:51;14.60;99.90
1704;DHT22;849;48.780;9.216;2023-03-21T09:37:17;14.70;99.90
1704;DHT22;849;48.780;9.216;2023-03-21T09:39:43;14.80;99.90
1704;DHT22;849;48.780;9.216;2023-03-21T09:45:11;15.00;99.00
1704;DHT22;849;48.780;9.216;2023-03-21T09:47:43;15.10;98.20
1704;DHT22;849;48.780;9.216;2023-03-21T09:50:21;15.10;97.70
1704;DHT22;849;48.780;9.216;2023-03-21T09:55:28;15.20;92.80
1704;DHT22;849;48.780;9.216;2023-03-21T09:58:37;15.30;94.40
1704;DHT22;849;48.780;9.216;2023-03-21T10:01:18;15.40;94.50
1704;DHT22;849;48.780;9.216;2023-03-21T10:03:52;15.60;96.80
1704;DHT22;849;48.780;9.216;2023-03-21T10:06:20;15.90;96.00
1704;DHT22;849;48.780;9.216;2023-03-21T10:08:57;16.00;95.90
1704;DHT22;849;48.780;9.216;2023-03-21T10:11:28;16.20;95.00
1704;DHT22;849;48.780;9.216;2023-03-21T10:14:03;16.30;93.30
1704;DHT22;849;48.780;9.216;2023-03-21T10:16:39;16.40;92.50
1704;DHT22;849;48.780;9.216;2023-03-21T10:19:18;15.90;90.90
1704;DHT22;849;48.780;9.216;2023-03-21T10:21:49;15.90;91.90
1704;DHT22;849;48.780;9.216;2023-03-21T10:24:18;16.00;92.30
1704;DHT22;849;48.780;9.216;2023-03-21T10:26:46;16.00;94.60
1704;DHT22;849;48.780;9.216;2023-03-21T10:29:14;16.20;91.70
1704;DHT22;849;48.780;9.216;2023-03-21T10:31:41;16.40;92.10
1704;DHT22;849;48.780;9.216;2023-03-21T10:34:24;16.50;92.70
1704;DHT22;849;48.780;9.216;2023-03-21T10:36:53;16.50;90.90
1704;DHT22;849;48.780;9.216;2023-03-21T10:39:36;16.50;91.70
1704;DHT22;849;48.780;9.216;2023-03-21T10:42:03;16.50;92.20
1704;DHT22;849;48.780;9.216;2023-03-21T10:44:31;16.50;90.80
1704;DHT22;849;48.780;9.216;2023-03-21T10:49:29;16.60;91.60
1704;DHT22;849;48.780;9.216;2023-03-21T10:51:57;16.70;89.40
1704;DHT22;849;48.780;9.216;2023-03-21T10:54:28;16.90;89.80
1704;DHT22;849;48.780;9.216;2023-03-21T10:56:57;17.00;89.00
1704;DHT22;849;48.780;9.216;2023-03-21T10:59:27;16.90;87.30
1704;DHT22;849;48.780;9.216;2023-03-21T11:01:55;16.70;87.20
1704;DHT22;849;48.780;9.216;2023-03-21T11:04:26;16.70;90.00
1704;DHT22;849;48.780;9.216;2023-03-21T11:06:58;17.00;87.70
1704;DHT22;849;48.780;9.216;2023-03-21T11:09:49;17.00;84.70
1704;DHT22;849;48.780;9.216;2023-03-21T11:12:28;16.30;82.60
1704;DHT22;849;48.780;9.216;2023-03-21T11:14:54;16.60;85.30
1704;DHT22;849;48.780;9.216;2023-03-21T11:17:23;16.70;78.80
1704;DHT22;849;48.780;9.216;2023-03-21T11:22:22;16.70;80.30
1704;DHT22;849;48.780;9.216;2023-03-21T11:24:51;16.80;79.30
1704;DHT22;849;48.780;9.216;2023-03-21T11:27:17;17.00;76.80
1704;DHT22;849;48.780;9.216;2023-03-21T11:29:52;17.30;78.90
1704;DHT22;849;48.780;9.216;2023-03-21T11:32:39;17.20;75.30
1704;DHT22;849;48.780;9.216;2023-03-21T11:35:13;16.70;75.30
1704;DHT22;849;48.780;9.216;2023-03-21T11:37:45;16.50;76.20
1704;DHT22;849;48.780;9.216;2023-03-21T11:40:32;16.40;79.50
1704;DHT22;849;48.780;9.216;2023-03-21T11:43:02;16.30;77.20
1704;DHT22;849;48.780;9.216;2023-03-21T11:45:30;16.30;76.40
1704;DHT22;849;48.780;9.216;2023-03-21T11:47:58;16.30;74.90
1704;DHT22;849;48.780;9.216;2023-03-21T11:50:41;16.30;75.60
1704;DHT22;849;48.780;9.216;2023-03-21T12:06:52;16.30;72.10
1704;DHT22;849;48.780;9.216;2023-03-21T12:09:23;16.90;73.10
1704;DHT22;849;48.780;9.216;2023-03-21T12:14:50;17.30;68.30
1704;DHT22;849;48.780;9.216;2023-03-21T12:17:20;17.10;67.50
1704;DHT22;849;48.780;9.216;2023-03-21T12:25:18;17.40;73.30
1704;DHT22;849;48.780;9.216;2023-03-21T12:27:56;17.40;73.20
1704;DHT22;849;48.780;9.216;2023-03-21T12:30:43;17.00;75.20
1704;DHT22;849;48.780;9.216;2023-03-21T12:33:23;17.00;75.60
1704;DHT22;849;48.780;9.216;2023-03-21T12:36:06;17.00;75.60
1704;DHT22;849;48.780;9.216;2023-03-21T12:44:18;17.10;76.00
1704;DHT22;849;48.780;9.216;2023-03-21T12:47:10;17.20;75.00
1704;DHT22;849;48.780;9.216;2023-03-21T12:49:42;17.40;74.00
1704;DHT22;849;48.780;9.216;2023-03-21T12:52:29;17.40;73.90
1704;DHT22;849;48.780;9.216;2023-03-21T12:55:23;17.50;73.90
1704;DHT22;849;48.780;9.216;2023-03-21T12:57:48;17.70;73.80
1704;DHT22;849;48.780;9.216;2023-03-21T13:00:19;17.80;73.10
1704;DHT22;849;48.780;9.216;2023-03-21T13:03:13;17.90;73.00
1704;DHT22;849;48.780;9.216;2023-03-21T13:05:49;18.00;73.40
1704;DHT22;849;48.780;9.216;2023-03-21T13:08:42;18.10;76.10
1704;DHT22;849;48.780;9.216;2023-03-21T13:11:13;18.20;71.60
1704;DHT22;849;48.780;9.216;2023-03-21T13:16:55;18.30;70.40
1704;DHT22;849;48.780;9.216;2023-03-21T13:19:36;18.20;71.50
1704;DHT22;849;48.780;9.216;2023-03-21T13:22:10;18.40;73.00
1704;DHT22;849;48.780;9.216;2023-03-21T13:24:41;18.50;72.90
1704;DHT22;849;48.780;9.216;2023-03-21T13:30:36;18.60;73.90
1704;DHT22;849;48.780;9.216;2023-03-21T13:32:45;18.70;75.20
1704;DHT22;849;48.780;9.216;2023-03-21T13:35:21;18.80;73.20
1704;DHT22;849;48.780;9.216;2023-03-21T13:38:05;18.70;73.10
1704;DHT22;849;48.780;9.216;2023-03-21T13:40:44;18.70;72.90
1704;DHT22;849;48.780;9.216;2023-03-21T13:51:20;18.80;70.60
1704;DHT22;849;48.780;9.216;2023-03-21T13:59:35;18.20;68.10
1704;DHT22;849;48.780;9.216;2023-03-21T14:02:22;18.40;68.30
1704;DHT22;849;48.780;9.216;2023-03-21T14:04:55;18.50;68.40
1704;DHT22;849;48.780;9.216;2023-03-21T14:07:31;18.20;69.30
1704;DHT22;849;48.780;9.216;2023-03-21T14:10:12;18.00;69.60
1704;DHT22;849;48.780;9.216;2023-03-21T14:12:43;17.70;71.10
1704;DHT22;849;48.780;9.216;2023-03-21T14:15:26;17.80;71.50
1704;DHT22;849;48.780;9.216;2023-03-21T14:17:56;17.70;70.50
1704;DHT22;849;48.780;9.216;2023-03-21T14:20:28;17.60;71.00
1704;DHT22;849;48.780;9.216;2023-03-21T14:22:54;17.70;71.90
1704;DHT22;849;48.780;9.216;2023-03-21T14:25:22;17.70;71.50
1704;DHT22;849;48.780;9.216;2023-03-21T14:27:52;17.60;71.30
1704;DHT22;849;48.780;9.216;2023-03-21T14:30:31;17.80;71.00
1704;DHT22;849;48.780;9.216;2023-03-21T14:33:15;17.90;71.60
1704;DHT22;849;48.780;9.216;2023-03-21T14:35:45;18.00;70.10
1704;DHT22;849;48.780;9.216;2023-03-21T14:38:23;17.90;69.90
1704;DHT22;849;48.780;9.216;2023-03-21T14:40:52;17.90;70.40
1704;DHT22;849;48.780;9.216;2023-03-21T14:43:20;17.80;70.40
1704;DHT22;849;48.780;9.216;2023-03-21T14:45:49;17.90;71.10
1704;DHT22;849;48.780;9.216;2023-03-21T14:48:17;17.80;70.70
1704;DHT22;849;48.780;9.216;2023-03-21T14:50:48;17.80;71.60
1704;DHT22;849;48.780;9.216;2023-03-21T14:53:27;17.90;70.70
1704;DHT22;849;48.780;9.216;2023-03-21T14:58:32;17.90;72.30
1704;DHT22;849;48.780;9.216;2023-03-21T15:01:02;17.90;72.60
1704;DHT22;849;48.780;9.216;2023-03-21T15:03:29;18.10;69.40
1704;DHT22;849;48.780;9.216;2023-03-21T15:05:56;18.00;69.10
1704;DHT22;849;48.780;9.216;2023-03-21T15:08:23;18.10;69.50
1704;DHT22;849;48.780;9.216;2023-03-21T15:11:05;18.40;70.30
1704;DHT22;849;48.780;9.216;2023-03-21T15:13:45;18.80;68.70
1704;DHT22;849;48.780;9.216;2023-03-21T15:16:14;18.70;68.60
1704;DHT22;849;48.780;9.216;2023-03-21T15:18:40;18.90;69.10
1704;DHT22;849;48.780;9.216;2023-03-21T15:21:09;18.80;66.70
1704;DHT22;849;48.780;9.216;2023-03-21T15:23:39;18.90;67.60
1704;DHT22;849;48.780;9.216;2023-03-21T15:26:10;19.10;66.50
1704;DHT22;849;48.780;9.216;2023-03-21T15:28:37;19.10;67.50
1704;DHT22;849;48.780;9.216;2023-03-21T15:31:04;19.30;65.60
1704;DHT22;849;48.780;9.216;2023-03-21T15:33:31;19.30;67.00
1704;DHT22;849;48.780;9.216;2023-03-21T15:35:58;19.30;65.20
1704;DHT22;849;48.780;9.216;2023-03-21T15:38:37;18.80;65.10
1704;DHT22;849;48.780;9.216;2023-03-21T15:41:14;17.90;67.00
1704;DHT22;849;48.780;9.216;2023-03-21T15:43:41;17.40;69.50
1704;DHT22;849;48.780;9.216;2023-03-21T15:46:13;17.70;70.80
1704;DHT22;849;48.780;9.216;2023-03-21T15:48:39;18.00;70.60
1704;DHT22;849;48.780;9.216;2023-03-21T15:51:09;18.10;69.40
1704;DHT22;849;48.780;9.216;2023-03-21T15:53:36;18.00;71.70
1704;DHT22;849;48.780;9.216;2023-03-21T15:56:04;17.60;70.70
1704;DHT22;849;48.780;9.216;2023-03-21T15:58:40;17.40;72.00
1704;DHT22;849;48.780;9.216;2023-03-21T16:01:15;17.30;72.30
1704;DHT22;849;48.780;9.216;2023-03-21T16:03:47;17.30;73.10
1704;DHT22;849;48.780;9.216;2023-03-21T16:06:15;17.40;74.30
1704;DHT22;849;48.780;9.216;2023-03-21T16:13:51;17.50;74.30
1704;DHT22;849;48.780;9.216;2023-03-21T16:16:19;17.50;74.10
1704;DHT22;849;48.780;9.216;2023-03-21T16:18:45;17.40;74.60
1704;DHT22;849;48.780;9.216;2023-03-21T16:21:13;17.30;75.50
1704;DHT22;849;48.780;9.216;2023-03-21T16:23:39;17.10;76.40
1704;DHT22;849;48.780;9.216;2023-03-21T16:26:05;16.90;76.90
1704;DHT22;849;48.780;9.216;2023-03-21T16:28:31;16.70;77.20
1704;DHT22;849;48.780;9.216;2023-03-21T16:30:57;16.70;77.40
1704;DHT22;849;48.780;9.216;2023-03-21T16:33:23;16.90;78.20
1704;DHT22;849;48.780;9.216;2023-03-21T16:35:50;16.70;77.90
1704;DHT22;849;48.780;9.216;2023-03-21T16:38:16;16.50;78.60
1704;DHT22;849;48.780;9.216;2023-03-21T16:40:42;16.30;79.70
1704;DHT22;849;48.780;9.216;2023-03-21T16:43:09;16.40;80.00
1704;DHT22;849;48.780;9.216;2023-03-21T16:45:35;16.70;80.00
1704;DHT22;849;48.780;9.216;2023-03-21T16:48:01;16.70;79.30
1704;DHT22;849;48.780;9.216;2023-03-21T16:50:35;16.70;79.90
1704;DHT22;849;48.780;9.216;2023-03-21T16:53:04;16.60;79.30
1704;DHT22;849;48.780;9.216;2023-03-21T16:55:30;16.70;79.60
1704;DHT22;849;48.780;9.216;2023-03-21T16:57:58;16.90;79.60
1704;DHT22;849;48.780;9.216;2023-03-21T17:00:25;17.00;79.40
1704;DHT22;849;48.780;9.216;2023-03-21T17:02:53;16.90;78.50
1704;DHT22;849;48.780;9.216;2023-03-21T17:05:23;16.80;79.10
1704;DHT22;849;48.780;9.216;2023-03-21T17:07:51;16.90;80.20
1704;DHT22;849;48.780;9.216;2023-03-21T17:10:25;16.90;78.90
1704;DHT22;849;48.780;9.216;2023-03-21T17:12:51;16.80;79.60
1704;DHT22;849;48.780;9.216;2023-03-21T17:15:18;16.80;80.00
1704;DHT22;849;48.780;9.216;2023-03-21T17:17:44;16.80;79.70
1704;DHT22;849;48.780;9.216;2023-03-21T17:20:20;16.70;79.70
1704;DHT22;849;48.780;9.216;2023-03-21T17:22:47;16.80;80.70
1704;DHT22;849;48.780;9.216;2023-03-21T17:25:14;16.90;81.10
1704;DHT22;849;48.780;9.216;2023-03-21T17:27:40;16.90;81.80
1704;DHT22;849;48.780;9.216;2023-03-21T17:30:20;16.70;82.30
1704;DHT22;849;48.780;9.216;2023-03-21T17:32:47;16.90;82.80
1704;DHT22;849;48.780;9.216;2023-03-21T17:35:13;16.90;82.30
1704;DHT22;849;48.780;9.216;2023-03-21T17:37:39;16.80;82.20
1704;DHT22;849;48.780;9.216;2023-03-21T17:40:06;16.80;82.70
1704;DHT22;849;48.780;9.216;2023-03-21T17:42:32;16.90;83.40
1704;DHT22;849;48.780;9.216;2023-03-21T17:44:58;17.00;84.70
1704;DHT22;849;48.780;9.216;2023-03-21T17:47:23;17.10;85.00
1704;DHT22;849;48.780;9.216;2023-03-21T17:49:51;17.10;85.10
1704;DHT22;849;48.780;9.216;2023-03-21T17:52:16;17.10;85.40
1704;DHT22;849;48.780;9.216;2023-03-21T17:54:42;17.10;87.00
1704;DHT22;849;48.780;9.216;2023-03-21T17:57:11;17.10;87.70
1704;DHT22;849;48.780;9.216;2023-03-21T17:59:36;17.10;88.50
1704;DHT22;849;48.780;9.216;2023-03-21T18:02:02;17.00;88.40
1704;DHT22;849;48.780;9.216;2023-03-21T18:04:28;17.00;88.90
1704;DHT22;849;48.780;9.216;2023-03-21T18:06:53;16.90;89.30